sensor_id;sensor_type;location;lat;lon;timestamp;P1;durP1;ratioP1;P2;durP2;ratioP2
69912;SDS011;57198;52.082;5.108;2024-03-29T07:38:37;1.93;;;1.73;;
69912;SDS011;57198;52.082;5.108;2024-03-29T07:41:03;1.80;;;1.70;;
69912;SDS011;57198;52.082;5.108;2024-03-29T07:43:39;1.65;;;1.55;;
69912;SDS011;57198;52.082;5.108;2024-03-29T07:46:06;1.92;;;1.83;;
69912;SDS011;57198;52.082;5.108;2024-03-29T07:48:34;1.65;;;1.30;;
69912;SDS011;57198;52.082;5.108;2024-03-29T07:51:01;3.90;;;3.60;;
69912;SDS011;57198;52.082;5.108;2024-03-29T07:53:28;2.53;;;2.33;;
69912;SDS011;57198;52.082;5.108;2024-03-29T07:55:54;2.65;;;2.47;;
69912;SDS011;57198;52.082;5.108;2024-03-29T07:58:21;2.28;;;1.55;;
69912;SDS011;57198;52.082;5.108;2024-03-29T08:00:47;2.42;;;2.28;;
69912;SDS011;57198;52.082;5.108;2024-03-29T08:03:14;2.30;;;1.92;;
69912;SDS011;57198;52.082;5.108;2024-03-29T08:05:40;2.38;;;1.50;;
69912;SDS011;57198;52.082;5.108;2024-03-29T08:08:06;1.40;;;1.30;;
69912;SDS011;57198;52.082;5.108;2024-03-29T08:10:33;1.70;;;1.60;;
69912;SDS011;57198;52.082;5.108;2024-03-29T08:12:59;2.55;;;1.63;;
69912;SDS011;57198;52.082;5.108;2024-03-29T08:15:26;1.48;;;1.38;;
69912;SDS011;57198;52.082;5.108;2024-03-29T08:17:53;1.00;;;1.00;;
69912;SDS011;57198;52.082;5.108;2024-03-29T08:20:19;2.28;;;2.08;;
69912;SDS011;57198;52.082;5.108;2024-03-29T08:22:46;1.50;;;1.40;;
69912;SDS011;57198;52.082;5.108;2024-03-29T08:25:12;1.30;;;1.20;;
69912;SDS011;57198;52.082;5.108;2024-03-29T08:27:39;2.60;;;1.58;;
69912;SDS011;57198;52.082;5.108;2024-03-29T08:30:06;1.50;;;1.40;;
69912;SDS011;57198;52.082;5.108;2024-03-29T08:32:32;2.05;;;1.33;;
69912;SDS011;57198;52.082;5.108;2024-03-29T08:34:59;2.35;;;1.40;;
69912;SDS011;57198;52.082;5.108;2024-03-29T08:37:25;2.60;;;1.50;;
69912;SDS011;57198;52.082;5.108;2024-03-29T08:39:52;2.35;;;1.92;;
69912;SDS011;57198;52.082;5.108;2024-03-29T08:42:18;2.63;;;1.70;;
69912;SDS011;57198;52.082;5.108;2024-03-29T08:44:44;1.92;;;1.83;;
69912;SDS011;57198;52.082;5.108;2024-03-29T08:47:11;1.73;;;1.63;;
69912;SDS011;57198;52.082;5.108;2024-03-29T08:49:37;2.10;;;1.40;;
69912;SDS011;57198;52.082;5.108;2024-03-29T08:52:05;1.58;;;1.48;;
69912;SDS011;57198;52.082;5.108;2024-03-29T08:54:31;1.67;;;1.08;;
69912;SDS011;57198;52.082;5.108;2024-03-29T08:56:58;1.15;;;1.13;;
69912;SDS011;57198;52.082;5.108;2024-03-29T08:59:27;1.92;;;1.15;;
69912;SDS011;57198;52.082;5.108;2024-03-29T09:01:53;1.33;;;1.23;;
69912;SDS011;57198;52.082;5.108;2024-03-29T09:04:20;1.00;;;0.85;;
69912;SDS011;57198;52.082;5.108;2024-03-29T09:06:46;0.90;;;0.90;;
69912;SDS011;57198;52.082;5.108;2024-03-29T09:09:13;1.13;;;1.13;;
69912;SDS011;57198;52.082;5.108;2024-03-29T09:11:39;1.20;;;1.10;;
69912;SDS011;57198;52.082;5.108;2024-03-29T09:14:06;1.45;;;1.35;;
69912;SDS011;57198;52.082;5.108;2024-03-29T09:16:35;1.50;;;1.50;;
69912;SDS011;57198;52.082;5.108;2024-03-29T09:19:01;2.00;;;1.67;;
69912;SDS011;57198;52.082;5.108;2024-03-29T09:21:30;1.55;;;1.02;;
69912;SDS011;57198;52.082;5.108;2024-03-29T09:23:57;1.48;;;1.38;;
69912;SDS011;57198;52.082;5.108;2024-03-29T09:26:23;1.08;;;0.93;;
69912;SDS011;57198;52.082;5.108;2024-03-29T09:28:50;0.85;;;0.85;;
69912;SDS011;57198;52.082;5.108;2024-03-29T09:31:16;1.52;;;0.80;;
69912;SDS011;57198;52.082;5.108;2024-03-29T09:33:43;1.38;;;1.33;;
69912;SDS011;57198;52.082;5.108;2024-03-29T09:36:12;2.53;;;1.17;;
69912;SDS011;57198;52.082;5.108;2024-03-29T09:38:39;1.70;;;1.20;;
69912;SDS011;57198;52.082;5.108;2024-03-29T09:43:32;1.52;;;1.42;;
69912;SDS011;57198;52.082;5.108;2024-03-29T09:45:59;2.25;;;1.08;;
69912;SDS011;57198;52.082;5.108;2024-03-29T09:48:25;1.20;;;1.08;;
69912;SDS011;57198;52.082;5.108;2024-03-29T09:50:52;1.92;;;1.55;;
69912;SDS011;57198;52.082;5.108;2024-03-29T09:53:20;1.85;;;1.30;;
69912;SDS011;57198;52.082;5.108;2024-03-29T09:55:47;3.88;;;1.40;;
69912;SDS011;57198;52.082;5.108;2024-03-29T09:58:14;4.32;;;1.30;;
69912;SDS011;57198;52.082;5.108;2024-03-29T10:00:40;3.10;;;1.73;;
69912;SDS011;57198;52.082;5.108;2024-03-29T10:03:07;2.00;;;1.90;;
69912;SDS011;57198;52.082;5.108;2024-03-29T10:05:34;2.13;;;1.05;;
69912;SDS011;57198;52.082;5.108;2024-03-29T10:08:00;2.60;;;2.10;;
69912;SDS011;57198;52.082;5.108;2024-03-29T10:10:32;3.60;;;1.40;;
69912;SDS011;57198;52.082;5.108;2024-03-29T10:12:59;4.47;;;1.60;;
69912;SDS011;57198;52.082;5.108;2024-03-29T10:15:27;2.88;;;2.13;;
69912;SDS011;57198;52.082;5.108;2024-03-29T10:17:54;2.87;;;1.10;;
69912;SDS011;57198;52.082;5.108;2024-03-29T10:20:21;2.47;;;1.88;;
69912;SDS011;57198;52.082;5.108;2024-03-29T10:22:48;3.47;;;2.13;;
69912;SDS011;57198;52.082;5.108;2024-03-29T10:25:15;3.17;;;2.47;;
69912;SDS011;57198;52.082;5.108;2024-03-29T10:27:42;3.70;;;3.35;;
69912;SDS011;57198;52.082;5.108;2024-03-29T10:30:09;1.87;;;1.70;;
69912;SDS011;57198;52.082;5.108;2024-03-29T10:32:37;4.50;;;2.42;;
69912;SDS011;57198;52.082;5.108;2024-03-29T10:35:07;1.75;;;1.65;;
69912;SDS011;57198;52.082;5.108;2024-03-29T10:37:35;4.72;;;1.38;;
69912;SDS011;57198;52.082;5.108;2024-03-29T10:40:10;3.47;;;1.50;;
69912;SDS011;57198;52.082;5.108;2024-03-29T10:42:41;2.47;;;1.40;;
69912;SDS011;57198;52.082;5.108;2024-03-29T10:45:08;1.77;;;1.67;;
69912;SDS011;57198;52.082;5.108;2024-03-29T10:47:34;1.50;;;1.30;;
69912;SDS011;57198;52.082;5.108;2024-03-29T10:50:01;1.75;;;1.20;;
69912;SDS011;57198;52.082;5.108;2024-03-29T10:52:31;1.85;;;1.00;;
69912;SDS011;57198;52.082;5.108;2024-03-29T10:54:58;3.03;;;1.33;;
69912;SDS011;57198;52.082;5.108;2024-03-29T10:57:27;1.70;;;0.70;;
69912;SDS011;57198;52.082;5.108;2024-03-29T11:00:07;1.65;;;1.20;;
69912;SDS011;57198;52.082;5.108;2024-03-29T11:02:50;1.70;;;1.00;;
69912;SDS011;57198;52.082;5.108;2024-03-29T11:05:19;1.38;;;1.20;;
69912;SDS011;57198;52.082;5.108;2024-03-29T11:07:46;4.27;;;1.40;;
69912;SDS011;57198;52.082;5.108;2024-03-29T11:10:14;2.00;;;1.30;;
69912;SDS011;57198;52.082;5.108;2024-03-29T11:12:45;1.67;;;1.10;;
69912;SDS011;57198;52.082;5.108;2024-03-29T11:15:16;2.20;;;1.60;;
69912;SDS011;57198;52.082;5.108;2024-03-29T11:17:44;1.90;;;1.75;;
69912;SDS011;57198;52.082;5.108;2024-03-29T11:20:11;1.90;;;1.73;;
69912;SDS011;57198;52.082;5.108;2024-03-29T11:22:40;1.55;;;1.27;;
69912;SDS011;57198;52.082;5.108;2024-03-29T11:25:07;1.67;;;0.80;;
69912;SDS011;57198;52.082;5.108;2024-03-29T11:27:38;0.73;;;0.73;;
69912;SDS011;57198;52.082;5.108;2024-03-29T11:30:05;0.80;;;0.80;;
69912;SDS011;57198;52.082;5.108;2024-03-29T11:32:35;1.67;;;1.43;;
69912;SDS011;57198;52.082;5.108;2024-03-29T11:35:13;1.45;;;1.15;;
69912;SDS011;57198;52.082;5.108;2024-03-29T11:37:40;3.17;;;1.00;;
69912;SDS011;57198;52.082;5.108;2024-03-29T11:40:10;1.20;;;1.10;;
69912;SDS011;57198;52.082;5.108;2024-03-29T11:45:04;1.50;;;1.00;;
69912;SDS011;57198;52.082;5.108;2024-03-29T11:47:33;1.23;;;1.00;;
69912;SDS011;57198;52.082;5.108;2024-03-29T11:49:59;1.20;;;1.10;;
69912;SDS011;57198;52.082;5.108;2024-03-29T11:52:26;1.33;;;1.05;;
69912;SDS011;57198;52.082;5.108;2024-03-29T11:54:53;1.25;;;1.20;;
69912;SDS011;57198;52.082;5.108;2024-03-29T11:57:20;2.40;;;1.03;;
69912;SDS011;57198;52.082;5.108;2024-03-29T11:59:50;1.50;;;1.40;;
69912;SDS011;57198;52.082;5.108;2024-03-29T12:02:17;2.10;;;1.77;;
69912;SDS011;57198;52.082;5.108;2024-03-29T12:04:44;1.88;;;1.70;;
69912;SDS011;57198;52.082;5.108;2024-03-29T12:07:10;1.70;;;1.60;;
69912;SDS011;57198;52.082;5.108;2024-03-29T12:09:38;1.83;;;1.57;;
69912;SDS011;57198;52.082;5.108;2024-03-29T12:12:05;1.83;;;1.45;;
69912;SDS011;57198;52.082;5.108;2024-03-29T12:14:35;2.15;;;1.70;;
69912;SDS011;57198;52.082;5.108;2024-03-29T12:17:12;2.28;;;2.17;;
69912;SDS011;57198;52.082;5.108;2024-03-29T12:19:38;2.63;;;2.42;;
69912;SDS011;57198;52.082;5.108;2024-03-29T12:22:08;2.00;;;1.90;;
69912;SDS011;57198;52.082;5.108;2024-03-29T12:24:35;2.10;;;2.00;;
69912;SDS011;57198;52.082;5.108;2024-03-29T12:27:01;2.67;;;2.42;;
69912;SDS011;57198;52.082;5.108;2024-03-29T12:29:28;2.15;;;2.05;;
69912;SDS011;57198;52.082;5.108;2024-03-29T12:32:00;2.40;;;2.20;;
69912;SDS011;57198;52.082;5.108;2024-03-29T12:34:27;2.13;;;1.63;;
69912;SDS011;57198;52.082;5.108;2024-03-29T12:36:53;2.47;;;1.88;;
69912;SDS011;57198;52.082;5.108;2024-03-29T12:39:20;2.10;;;2.00;;
69912;SDS011;57198;52.082;5.108;2024-03-29T12:41:47;2.75;;;2.42;;
69912;SDS011;57198;52.082;5.108;2024-03-29T12:44:14;5.18;;;2.83;;
69912;SDS011;57198;52.082;5.108;2024-03-29T12:46:40;2.90;;;2.70;;
69912;SDS011;57198;52.082;5.108;2024-03-29T12:49:09;8.43;;;6.13;;
69912;SDS011;57198;52.082;5.108;2024-03-29T12:51:39;3.08;;;2.75;;
69912;SDS011;57198;52.082;5.108;2024-03-29T12:54:06;3.38;;;2.95;;
69912;SDS011;57198;52.082;5.108;2024-03-29T12:56:32;2.88;;;2.70;;
69912;SDS011;57198;52.082;5.108;2024-03-29T12:58:58;2.63;;;2.47;;
69912;SDS011;57198;52.082;5.108;2024-03-29T13:01:25;3.13;;;2.85;;
69912;SDS011;57198;52.082;5.108;2024-03-29T13:03:51;3.28;;;3.08;;
69912;SDS011;57198;52.082;5.108;2024-03-29T13:06:18;3.83;;;3.53;;
69912;SDS011;57198;52.082;5.108;2024-03-29T13:08:44;2.80;;;2.65;;
69912;SDS011;57198;52.082;5.108;2024-03-29T13:11:10;3.07;;;2.87;;
69912;SDS011;57198;52.082;5.108;2024-03-29T13:13:37;2.42;;;2.30;;
69912;SDS011;57198;52.082;5.108;2024-03-29T13:16:03;3.25;;;2.42;;
69912;SDS011;57198;52.082;5.108;2024-03-29T13:18:30;2.35;;;2.15;;
69912;SDS011;57198;52.082;5.108;2024-03-29T13:20:56;2.90;;;2.70;;
69912;SDS011;57198;52.082;5.108;2024-03-29T13:23:27;2.50;;;2.40;;
69912;SDS011;57198;52.082;5.108;2024-03-29T13:25:53;4.28;;;2.28;;
69912;SDS011;57198;52.082;5.108;2024-03-29T13:28:21;4.82;;;2.65;;
69912;SDS011;57198;52.082;5.108;2024-03-29T13:30:48;2.72;;;2.53;;
69912;SDS011;57198;52.082;5.108;2024-03-29T13:33:17;2.67;;;2.03;;
69912;SDS011;57198;52.082;5.108;2024-03-29T13:35:43;2.30;;;1.63;;
69912;SDS011;57198;52.082;5.108;2024-03-29T13:38:11;3.42;;;2.05;;
69912;SDS011;57198;52.082;5.108;2024-03-29T13:40:37;2.35;;;1.88;;
69912;SDS011;57198;52.082;5.108;2024-03-29T13:43:05;2.88;;;2.30;;
69912;SDS011;57198;52.082;5.108;2024-03-29T13:45:32;1.77;;;1.67;;
69912;SDS011;57198;52.082;5.108;2024-03-29T13:47:59;2.17;;;2.03;;
69912;SDS011;57198;52.082;5.108;2024-03-29T13:50:25;3.15;;;2.00;;
69912;SDS011;57198;52.082;5.108;2024-03-29T13:52:52;2.25;;;2.05;;
69912;SDS011;57198;52.082;5.108;2024-03-29T13:55:20;3.13;;;2.60;;
69912;SDS011;57198;52.082;5.108;2024-03-29T13:57:46;2.67;;;2.33;;
69912;SDS011;57198;52.082;5.108;2024-03-29T14:00:13;2.20;;;2.00;;
69912;SDS011;57198;52.082;5.108;2024-03-29T14:02:42;2.58;;;2.38;;
69912;SDS011;57198;52.082;5.108;2024-03-29T14:05:09;2.92;;;2.08;;
69912;SDS011;57198;52.082;5.108;2024-03-29T14:07:36;2.45;;;2.25;;
69912;SDS011;57198;52.082;5.108;2024-03-29T14:10:03;2.35;;;2.10;;
69912;SDS011;57198;52.082;5.108;2024-03-29T14:12:32;2.63;;;2.20;;
69912;SDS011;57198;52.082;5.108;2024-03-29T14:14:59;1.60;;;1.50;;
69912;SDS011;57198;52.082;5.108;2024-03-29T14:17:26;3.75;;;1.90;;
69912;SDS011;57198;52.082;5.108;2024-03-29T14:19:53;2.15;;;2.05;;
69912;SDS011;57198;52.082;5.108;2024-03-29T14:22:20;1.90;;;1.80;;
69912;SDS011;57198;52.082;5.108;2024-03-29T14:24:49;1.93;;;1.70;;
69912;SDS011;57198;52.082;5.108;2024-03-29T14:27:15;2.53;;;1.90;;
69912;SDS011;57198;52.082;5.108;2024-03-29T14:29:41;1.90;;;1.80;;
69912;SDS011;57198;52.082;5.108;2024-03-29T14:32:10;1.98;;;1.88;;
69912;SDS011;57198;52.082;5.108;2024-03-29T14:34:37;2.83;;;1.80;;
69912;SDS011;57198;52.082;5.108;2024-03-29T14:37:10;1.70;;;1.60;;
69912;SDS011;57198;52.082;5.108;2024-03-29T14:39:39;2.90;;;1.85;;
69912;SDS011;57198;52.082;5.108;2024-03-29T14:42:07;1.20;;;1.10;;
69912;SDS011;57198;52.082;5.108;2024-03-29T14:44:37;1.52;;;1.10;;
69912;SDS011;57198;52.082;5.108;2024-03-29T14:47:04;2.10;;;1.42;;
69912;SDS011;57198;52.082;5.108;2024-03-29T14:49:31;1.80;;;1.60;;
69912;SDS011;57198;52.082;5.108;2024-03-29T14:51:58;1.30;;;1.30;;
69912;SDS011;57198;52.082;5.108;2024-03-29T14:54:25;1.70;;;1.40;;
69912;SDS011;57198;52.082;5.108;2024-03-29T14:56:51;1.27;;;1.02;;
69912;SDS011;57198;52.082;5.108;2024-03-29T14:59:18;2.33;;;1.10;;
69912;SDS011;57198;52.082;5.108;2024-03-29T15:01:44;1.70;;;1.00;;
69912;SDS011;57198;52.082;5.108;2024-03-29T15:04:11;1.20;;;1.10;;
69912;SDS011;57198;52.082;5.108;2024-03-29T15:06:37;2.00;;;0.90;;
69912;SDS011;57198;52.082;5.108;2024-03-29T15:09:06;1.38;;;1.27;;
69912;SDS011;57198;52.082;5.108;2024-03-29T15:11:33;2.55;;;1.05;;
69912;SDS011;57198;52.082;5.108;2024-03-29T15:14:00;0.80;;;0.80;;
69912;SDS011;57198;52.082;5.108;2024-03-29T15:16:27;1.30;;;1.20;;
69912;SDS011;57198;52.082;5.108;2024-03-29T15:18:53;1.20;;;1.20;;
69912;SDS011;57198;52.082;5.108;2024-03-29T15:21:22;1.35;;;1.25;;
69912;SDS011;57198;52.082;5.108;2024-03-29T15:23:49;2.60;;;1.50;;
69912;SDS011;57198;52.082;5.108;2024-03-29T15:26:15;1.30;;;1.20;;
69912;SDS011;57198;52.082;5.108;2024-03-29T15:28:42;1.45;;;1.35;;
69912;SDS011;57198;52.082;5.108;2024-03-29T15:31:27;1.20;;;1.08;;
69912;SDS011;57198;52.082;5.108;2024-03-29T15:33:53;1.88;;;1.33;;
69912;SDS011;57198;52.082;5.108;2024-03-29T15:36:20;1.48;;;1.38;;
69912;SDS011;57198;52.082;5.108;2024-03-29T15:38:49;1.93;;;1.27;;
69912;SDS011;57198;52.082;5.108;2024-03-29T15:41:17;2.72;;;1.42;;
69912;SDS011;57198;52.082;5.108;2024-03-29T15:43:43;1.30;;;1.20;;
69912;SDS011;57198;52.082;5.108;2024-03-29T15:46:10;1.20;;;0.85;;
69912;SDS011;57198;52.082;5.108;2024-03-29T15:48:37;1.27;;;1.10;;
69912;SDS011;57198;52.082;5.108;2024-03-29T15:51:05;1.47;;;1.00;;
69912;SDS011;57198;52.082;5.108;2024-03-29T15:53:36;1.08;;;0.60;;
69912;SDS011;57198;52.082;5.108;2024-03-29T15:56:03;4.82;;;0.90;;
69912;SDS011;57198;52.082;5.108;2024-03-29T15:58:30;2.60;;;0.88;;
69912;SDS011;57198;52.082;5.108;2024-03-29T16:00:57;1.77;;;1.50;;
69912;SDS011;57198;52.082;5.108;2024-03-29T16:03:23;0.93;;;0.93;;
69912;SDS011;57198;52.082;5.108;2024-03-29T16:05:50;0.80;;;0.80;;
69912;SDS011;57198;52.082;5.108;2024-03-29T16:08:18;1.98;;;0.90;;
69912;SDS011;57198;52.082;5.108;2024-03-29T16:10:55;2.75;;;1.20;;
69912;SDS011;57198;52.082;5.108;2024-03-29T16:13:23;1.20;;;0.80;;
69912;SDS011;57198;52.082;5.108;2024-03-29T16:15:50;1.83;;;1.03;;
69912;SDS011;57198;52.082;5.108;2024-03-29T16:18:17;1.83;;;1.13;;
69912;SDS011;57198;52.082;5.108;2024-03-29T16:20:44;1.63;;;0.90;;
69912;SDS011;57198;52.082;5.108;2024-03-29T16:23:11;1.77;;;0.98;;
69912;SDS011;57198;52.082;5.108;2024-03-29T16:25:38;2.30;;;1.02;;
69912;SDS011;57198;52.082;5.108;2024-03-29T16:28:07;3.57;;;1.20;;
69912;SDS011;57198;52.082;5.108;2024-03-29T16:30:44;1.60;;;1.50;;
69912;SDS011;57198;52.082;5.108;2024-03-29T16:33:10;1.38;;;0.80;;
69912;SDS011;57198;52.082;5.108;2024-03-29T16:35:37;1.30;;;1.17;;
69912;SDS011;57198;52.082;5.108;2024-03-29T16:38:04;2.20;;;1.20;;
69912;SDS011;57198;52.082;5.108;2024-03-29T16:40:33;1.37;;;0.70;;
69912;SDS011;57198;52.082;5.108;2024-03-29T16:43:03;1.63;;;1.52;;
69912;SDS011;57198;52.082;5.108;2024-03-29T16:45:30;1.10;;;0.98;;
69912;SDS011;57198;52.082;5.108;2024-03-29T16:47:56;2.45;;;1.15;;
69912;SDS011;57198;52.082;5.108;2024-03-29T16:50:23;1.20;;;0.85;;
69912;SDS011;57198;52.082;5.108;2024-03-29T16:52:50;3.10;;;0.97;;
69912;SDS011;57198;52.082;5.108;2024-03-29T16:55:16;1.50;;;1.00;;
69912;SDS011;57198;52.082;5.108;2024-03-29T16:57:43;1.30;;;1.20;;
69912;SDS011;57198;52.082;5.108;2024-03-29T17:00:10;2.53;;;1.40;;
69912;SDS011;57198;52.082;5.108;2024-03-29T17:02:37;1.13;;;1.00;;
69912;SDS011;57198;52.082;5.108;2024-03-29T17:05:05;1.40;;;1.30;;
69912;SDS011;57198;52.082;5.108;2024-03-29T17:07:31;2.03;;;1.83;;
69912;SDS011;57198;52.082;5.108;2024-03-29T17:09:58;1.98;;;1.80;;
69912;SDS011;57198;52.082;5.108;2024-03-29T17:12:24;4.05;;;1.30;;
69912;SDS011;57198;52.082;5.108;2024-03-29T17:14:55;1.30;;;1.20;;
69912;SDS011;57198;52.082;5.108;2024-03-29T17:17:22;1.87;;;1.77;;
69912;SDS011;57198;52.082;5.108;2024-03-29T17:19:49;1.10;;;1.00;;
69912;SDS011;57198;52.082;5.108;2024-03-29T17:22:15;4.03;;;1.45;;
69912;SDS011;57198;52.082;5.108;2024-03-29T17:24:42;1.70;;;1.60;;
69912;SDS011;57198;52.082;5.108;2024-03-29T17:27:08;1.20;;;1.10;;
69912;SDS011;57198;52.082;5.108;2024-03-29T17:29:35;2.70;;;1.63;;
69912;SDS011;57198;52.082;5.108;2024-03-29T17:32:01;1.60;;;1.50;;
69912;SDS011;57198;52.082;5.108;2024-03-29T17:34:28;2.13;;;1.17;;
69912;SDS011;57198;52.082;5.108;2024-03-29T17:36:54;2.40;;;1.15;;
69912;SDS011;57198;52.082;5.108;2024-03-29T17:39:21;3.97;;;1.60;;
69912;SDS011;57198;52.082;5.108;2024-03-29T17:41:48;2.30;;;1.53;;
69912;SDS011;57198;52.082;5.108;2024-03-29T17:44:14;2.65;;;1.90;;
69912;SDS011;57198;52.082;5.108;2024-03-29T17:46:43;2.40;;;2.20;;
69912;SDS011;57198;52.082;5.108;2024-03-29T17:49:12;3.38;;;2.42;;
69912;SDS011;57198;52.082;5.108;2024-03-29T17:51:38;2.28;;;1.90;;
69912;SDS011;57198;52.082;5.108;2024-03-29T17:54:05;2.27;;;1.93;;
69912;SDS011;57198;52.082;5.108;2024-03-29T17:56:31;6.20;;;2.10;;
69912;SDS011;57198;52.082;5.108;2024-03-29T17:58:58;4.00;;;2.47;;
69912;SDS011;57198;52.082;5.108;2024-03-29T18:01:24;1.88;;;1.75;;
69912;SDS011;57198;52.082;5.108;2024-03-29T18:03:51;3.13;;;1.98;;
69912;SDS011;57198;52.082;5.108;2024-03-29T18:06:18;2.87;;;1.90;;
69912;SDS011;57198;52.082;5.108;2024-03-29T18:08:45;1.92;;;1.63;;
69912;SDS011;57198;52.082;5.108;2024-03-29T18:11:11;6.90;;;2.00;;
69912;SDS011;57198;52.082;5.108;2024-03-29T18:13:42;2.03;;;1.92;;
69912;SDS011;57198;52.082;5.108;2024-03-29T18:16:08;1.95;;;1.75;;
69912;SDS011;57198;52.082;5.108;2024-03-29T18:18:37;2.13;;;1.97;;
69912;SDS011;57198;52.082;5.108;2024-03-29T18:21:04;2.20;;;1.95;;
69912;SDS011;57198;52.082;5.108;2024-03-29T18:23:30;3.05;;;1.73;;
69912;SDS011;57198;52.082;5.108;2024-03-29T18:25:57;2.60;;;2.05;;
69912;SDS011;57198;52.082;5.108;2024-03-29T18:28:24;2.92;;;2.20;;
69912;SDS011;57198;52.082;5.108;2024-03-29T18:30:52;2.17;;;2.07;;
69912;SDS011;57198;52.082;5.108;2024-03-29T18:33:21;2.05;;;1.83;;
69912;SDS011;57198;52.082;5.108;2024-03-29T18:35:48;1.95;;;1.63;;
69912;SDS011;57198;52.082;5.108;2024-03-29T18:38:14;4.28;;;1.50;;
69912;SDS011;57198;52.082;5.108;2024-03-29T18:40:41;2.00;;;1.67;;
69912;SDS011;57198;52.082;5.108;2024-03-29T18:43:07;1.70;;;1.60;;
69912;SDS011;57198;52.082;5.108;2024-03-29T18:45:40;4.25;;;1.80;;
69912;SDS011;57198;52.082;5.108;2024-03-29T18:48:06;3.05;;;1.77;;
69912;SDS011;57198;52.082;5.108;2024-03-29T18:50:32;1.60;;;1.30;;
69912;SDS011;57198;52.082;5.108;2024-03-29T18:52:59;2.30;;;1.90;;
69912;SDS011;57198;52.082;5.108;2024-03-29T18:55:25;2.03;;;1.50;;
69912;SDS011;57198;52.082;5.108;2024-03-29T18:57:52;1.98;;;1.77;;
69912;SDS011;57198;52.082;5.108;2024-03-29T19:00:18;3.67;;;1.70;;
69912;SDS011;57198;52.082;5.108;2024-03-29T19:02:45;2.58;;;2.20;;
69912;SDS011;57198;52.082;5.108;2024-03-29T19:05:11;2.45;;;1.77;;
69912;SDS011;57198;52.082;5.108;2024-03-29T19:07:38;2.00;;;1.80;;
69912;SDS011;57198;52.082;5.108;2024-03-29T19:10:05;2.85;;;1.45;;
69912;SDS011;57198;52.082;5.108;2024-03-29T19:12:32;1.73;;;1.58;;
69912;SDS011;57198;52.082;5.108;2024-03-29T19:14:59;2.28;;;1.75;;
69912;SDS011;57198;52.082;5.108;2024-03-29T19:17:31;2.58;;;1.67;;
69912;SDS011;57198;52.082;5.108;2024-03-29T19:19:58;2.77;;;2.17;;
69912;SDS011;57198;52.082;5.108;2024-03-29T19:22:24;2.00;;;1.90;;
69912;SDS011;57198;52.082;5.108;2024-03-29T19:24:51;4.07;;;1.80;;
69912;SDS011;57198;52.082;5.108;2024-03-29T19:27:21;1.75;;;1.65;;
69912;SDS011;57198;52.082;5.108;2024-03-29T19:29:48;1.75;;;1.65;;
69912;SDS011;57198;52.082;5.108;2024-03-29T19:32:16;1.87;;;1.77;;
69912;SDS011;57198;52.082;5.108;2024-03-29T19:34:43;2.45;;;1.80;;
69912;SDS011;57198;52.082;5.108;2024-03-29T19:37:09;1.58;;;1.48;;
69912;SDS011;57198;52.082;5.108;2024-03-29T19:39:36;2.47;;;1.50;;
69912;SDS011;57198;52.082;5.108;2024-03-29T19:42:03;3.53;;;1.90;;
69912;SDS011;57198;52.082;5.108;2024-03-29T19:44:29;3.83;;;1.77;;
69912;SDS011;57198;52.082;5.108;2024-03-29T19:46:56;2.63;;;2.10;;
69912;SDS011;57198;52.082;5.108;2024-03-29T19:49:22;3.22;;;1.98;;
69912;SDS011;57198;52.082;5.108;2024-03-29T19:51:49;2.33;;;2.03;;
69912;SDS011;57198;52.082;5.108;2024-03-29T19:54:17;2.10;;;1.52;;
69912;SDS011;57198;52.082;5.108;2024-03-29T19:56:43;1.70;;;1.60;;
69912;SDS011;57198;52.082;5.108;2024-03-29T19:59:10;3.63;;;1.75;;
69912;SDS011;57198;52.082;5.108;2024-03-29T20:01:37;2.33;;;1.67;;
69912;SDS011;57198;52.082;5.108;2024-03-29T20:04:04;4.35;;;1.75;;
69912;SDS011;57198;52.082;5.108;2024-03-29T20:06:30;2.03;;;1.80;;
69912;SDS011;57198;52.082;5.108;2024-03-29T20:08:57;2.27;;;1.97;;
69912;SDS011;57198;52.082;5.108;2024-03-29T20:11:24;3.78;;;1.88;;
69912;SDS011;57198;52.082;5.108;2024-03-29T20:13:51;2.15;;;1.83;;
69912;SDS011;57198;52.082;5.108;2024-03-29T20:16:17;2.58;;;2.38;;
69912;SDS011;57198;52.082;5.108;2024-03-29T20:18:44;3.70;;;2.08;;
69912;SDS011;57198;52.082;5.108;2024-03-29T20:21:10;2.27;;;2.07;;
69912;SDS011;57198;52.082;5.108;2024-03-29T20:23:37;1.58;;;1.48;;
69912;SDS011;57198;52.082;5.108;2024-03-29T20:26:03;2.03;;;1.80;;
69912;SDS011;57198;52.082;5.108;2024-03-29T20:28:31;2.97;;;1.70;;
69912;SDS011;57198;52.082;5.108;2024-03-29T20:31:02;2.42;;;1.80;;
69912;SDS011;57198;52.082;5.108;2024-03-29T20:33:31;2.60;;;1.73;;
69912;SDS011;57198;52.082;5.108;2024-03-29T20:35:58;2.83;;;1.85;;
69912;SDS011;57198;52.082;5.108;2024-03-29T20:38:24;2.67;;;2.13;;
69912;SDS011;57198;52.082;5.108;2024-03-29T20:40:51;2.33;;;2.13;;
69912;SDS011;57198;52.082;5.108;2024-03-29T20:43:18;2.10;;;1.58;;
69912;SDS011;57198;52.082;5.108;2024-03-29T20:45:45;2.20;;;1.90;;
69912;SDS011;57198;52.082;5.108;2024-03-29T20:48:12;2.25;;;1.92;;
69912;SDS011;57198;52.082;5.108;2024-03-29T20:50:38;4.00;;;2.17;;
69912;SDS011;57198;52.082;5.108;2024-03-29T20:53:05;2.10;;;1.90;;
69912;SDS011;57198;52.082;5.108;2024-03-29T20:55:32;2.05;;;1.92;;
69912;SDS011;57198;52.082;5.108;2024-03-29T20:57:58;2.47;;;2.27;;
69912;SDS011;57198;52.082;5.108;2024-03-29T21:00:25;2.95;;;1.83;;
69912;SDS011;57198;52.082;5.108;2024-03-29T21:02:51;2.22;;;1.83;;
69912;SDS011;57198;52.082;5.108;2024-03-29T21:05:37;2.88;;;2.10;;
69912;SDS011;57198;52.082;5.108;2024-03-29T21:08:05;2.42;;;2.17;;
69912;SDS011;57198;52.082;5.108;2024-03-29T21:10:32;4.20;;;2.20;;
69912;SDS011;57198;52.082;5.108;2024-03-29T21:12:59;2.33;;;2.17;;
69912;SDS011;57198;52.082;5.108;2024-03-29T21:15:29;2.45;;;2.25;;
69912;SDS011;57198;52.082;5.108;2024-03-29T21:17:56;4.53;;;2.17;;
69912;SDS011;57198;52.082;5.108;2024-03-29T21:20:23;4.45;;;2.20;;
69912;SDS011;57198;52.082;5.108;2024-03-29T21:22:50;4.07;;;2.70;;
69912;SDS011;57198;52.082;5.108;2024-03-29T21:25:17;3.00;;;1.90;;
69912;SDS011;57198;52.082;5.108;2024-03-29T21:27:44;3.78;;;2.17;;
69912;SDS011;57198;52.082;5.108;2024-03-29T21:30:11;1.90;;;1.80;;
69912;SDS011;57198;52.082;5.108;2024-03-29T21:32:42;3.80;;;2.17;;
69912;SDS011;57198;52.082;5.108;2024-03-29T21:35:09;2.47;;;2.17;;
69912;SDS011;57198;52.082;5.108;2024-03-29T21:37:35;2.20;;;1.95;;
69912;SDS011;57198;52.082;5.108;2024-03-29T21:40:03;3.42;;;2.40;;
69912;SDS011;57198;52.082;5.108;2024-03-29T21:42:30;2.65;;;2.45;;
69912;SDS011;57198;52.082;5.108;2024-03-29T21:44:56;2.08;;;1.90;;
69912;SDS011;57198;52.082;5.108;2024-03-29T21:47:23;2.80;;;2.30;;
69912;SDS011;57198;52.082;5.108;2024-03-29T21:49:50;2.83;;;2.63;;
69912;SDS011;57198;52.082;5.108;2024-03-29T21:52:17;2.63;;;2.42;;
69912;SDS011;57198;52.082;5.108;2024-03-29T21:54:44;2.70;;;2.50;;
69912;SDS011;57198;52.082;5.108;2024-03-29T21:57:12;4.55;;;2.10;;
69912;SDS011;57198;52.082;5.108;2024-03-29T21:59:39;2.57;;;1.80;;
69912;SDS011;57198;52.082;5.108;2024-03-29T22:02:05;2.55;;;2.15;;
69912;SDS011;57198;52.082;5.108;2024-03-29T22:04:32;2.53;;;2.20;;
69912;SDS011;57198;52.082;5.108;2024-03-29T22:07:02;2.55;;;2.22;;
69912;SDS011;57198;52.082;5.108;2024-03-29T22:09:32;3.83;;;2.17;;
69912;SDS011;57198;52.082;5.108;2024-03-29T22:11:59;2.57;;;2.37;;
69912;SDS011;57198;52.082;5.108;2024-03-29T22:14:26;4.15;;;2.67;;
69912;SDS011;57198;52.082;5.108;2024-03-29T22:16:53;2.60;;;2.38;;
69912;SDS011;57198;52.082;5.108;2024-03-29T22:19:19;2.40;;;2.20;;
69912;SDS011;57198;52.082;5.108;2024-03-29T22:21:46;1.92;;;1.83;;
69912;SDS011;57198;52.082;5.108;2024-03-29T22:24:15;2.50;;;2.40;;
69912;SDS011;57198;52.082;5.108;2024-03-29T22:26:42;2.42;;;2.22;;
69912;SDS011;57198;52.082;5.108;2024-03-29T22:29:08;2.33;;;2.08;;
69912;SDS011;57198;52.082;5.108;2024-03-29T22:31:35;2.10;;;1.92;;